PWSweather.com
Personal Weather Stations
Station Observations
KILMORRI1
Goose Lake, Morris, IL 60450

Goose LakeMorris, IL 60450

Lat: 41.34, Lon: -88.3

Elevation: 523

Station Type:

www.gooselakeweather.com

High Low Average
Temperature 23.7°F-4.6°C 14.8°F-9.6°C 20.0°F-6.7°C
Dew Point 16.5°F-8.6°C 2.8°F-16.2°C 12.3°F-10.9°C
Winds 12.7 mph 20.4 kmh 4.6 mph 7.4 kmh 9.0 mph W14.5 kmh W
Wind Gusts 23.0 mph37.0 kmh 8.1 mph13.0 kmh 15.0 mph24.1 kmh
Humidity 84% 57% 72%
Pressure 30.46 in1031.5 mb 29.94 in1013.9 mb -
Precipitation 0.00 in0.0 mm - -
Hour Temp Dew Point Humidity Winds Wind Gusts Pressure Precip Precip Rate Daily Precip Total
12:00 AM 20.0°F-6.7°C 15.4°F-9.2°C 82% 9.2 mph NW14.8 kmh NW 9.2 mph14.8 kmh 29.92 in1013.2 mb - 0.00 in0.0 mm 0.25 in6.4 mm
12:10 AM 20.0°F-6.7°C 15.7°F-9.1°C 83% 8.1 mph W13.0 kmh W 15.0 mph24.1 kmh 29.94 in1013.9 mb - 0.00 in0.0 mm 0.25 in6.4 mm
12:20 AM 19.8°F-6.8°C 15.2°F-9.3°C 82% 8.1 mph WNW13.0 kmh WNW 9.2 mph14.8 kmh 29.93 in1013.5 mb - 0.00 in0.0 mm 0.25 in6.4 mm
12:30 AM 19.6°F-6.9°C 15.0°F-9.4°C 82% 9.2 mph NW14.8 kmh NW 12.7 mph20.4 kmh 29.93 in1013.5 mb - 0.00 in0.0 mm 0.25 in6.4 mm
12:40 AM 19.4°F-7.0°C 14.8°F-9.6°C 82% 9.2 mph NW14.8 kmh NW 13.8 mph22.2 kmh 29.93 in1013.5 mb - 0.00 in0.0 mm 0.25 in6.4 mm
12:50 AM 19.3°F-7.1°C 14.7°F-9.6°C 82% 8.1 mph WNW13.0 kmh WNW 11.5 mph18.5 kmh 29.93 in1013.5 mb - 0.00 in0.0 mm 0.25 in6.4 mm
01:00 AM 19.2°F-7.1°C 14.6°F-9.7°C 82% 10.4 mph WNW16.7 kmh WNW 13.8 mph22.2 kmh 29.95 in1014.2 mb - 0.00 in0.0 mm 0.00 in0.0 mm
01:10 AM 19.3°F-7.1°C 14.7°F-9.6°C 82% 9.2 mph WNW14.8 kmh WNW 15.0 mph24.1 kmh 29.96 in1014.6 mb - 0.00 in0.0 mm 0.00 in0.0 mm
01:20 AM 19.3°F-7.1°C 14.7°F-9.6°C 82% 8.1 mph W13.0 kmh W 10.4 mph16.7 kmh 29.97 in1014.9 mb - 0.00 in0.0 mm 0.00 in0.0 mm
01:30 AM 18.9°F-7.3°C 14.4°F-9.8°C 82% 9.2 mph W14.8 kmh W 11.5 mph18.5 kmh 29.97 in1014.9 mb - 0.00 in0.0 mm 0.00 in0.0 mm
01:40 AM 18.9°F-7.3°C 14.3°F-9.8°C 82% 8.1 mph W13.0 kmh W 12.7 mph20.4 kmh 29.97 in1014.9 mb - 0.00 in0.0 mm 0.00 in0.0 mm
01:50 AM 18.8°F-7.3°C 14.2°F-9.9°C 82% 10.4 mph WNW16.7 kmh WNW 17.3 mph27.8 kmh 29.96 in1014.6 mb - 0.00 in0.0 mm 0.00 in0.0 mm
02:00 AM 18.8°F-7.3°C 14.5°F-9.7°C 83% 8.1 mph NW13.0 kmh NW 9.2 mph14.8 kmh 29.97 in1014.9 mb - 0.00 in0.0 mm 0.00 in0.0 mm
02:10 AM 18.9°F-7.3°C 14.6°F-9.7°C 83% 8.1 mph WNW13.0 kmh WNW 13.8 mph22.2 kmh 29.97 in1014.9 mb - 0.00 in0.0 mm 0.00 in0.0 mm
02:20 AM 19.0°F-7.2°C 14.7°F-9.6°C 83% 5.8 mph NW9.3 kmh NW 10.4 mph16.7 kmh 29.96 in1014.6 mb - 0.00 in0.0 mm 0.00 in0.0 mm
02:30 AM 18.9°F-7.3°C 14.6°F-9.7°C 83% 10.4 mph NW16.7 kmh NW 16.1 mph25.9 kmh 29.94 in1013.9 mb - 0.00 in0.0 mm 0.00 in0.0 mm
02:40 AM 18.8°F-7.3°C 14.2°F-9.9°C 82% 10.4 mph NW16.7 kmh NW 19.6 mph31.5 kmh 29.94 in1013.9 mb - 0.00 in0.0 mm 0.00 in0.0 mm
02:50 AM 18.9°F-7.3°C 14.3°F-9.8°C 82% 8.1 mph NW13.0 kmh NW 13.8 mph22.2 kmh 29.94 in1013.9 mb - 0.00 in0.0 mm 0.00 in0.0 mm
03:00 AM 19.0°F-7.2°C 14.7°F-9.6°C 83% 12.7 mph NW20.4 kmh NW 18.4 mph29.6 kmh 29.95 in1014.2 mb - 0.00 in0.0 mm 0.00 in0.0 mm
03:10 AM 19.0°F-7.2°C 14.7°F-9.6°C 83% 12.7 mph NW20.4 kmh NW 15.0 mph24.1 kmh 29.95 in1014.2 mb - 0.00 in0.0 mm 0.00 in0.0 mm
03:20 AM 19.2°F-7.1°C 15.1°F-9.4°C 84% 6.9 mph NW11.1 kmh NW 15.0 mph24.1 kmh 29.96 in1014.6 mb - 0.00 in0.0 mm 0.00 in0.0 mm
03:30 AM 19.3°F-7.1°C 15.3°F-9.3°C 84% 12.7 mph NW20.4 kmh NW 19.6 mph31.5 kmh 29.96 in1014.6 mb - 0.00 in0.0 mm 0.00 in0.0 mm
03:40 AM 19.4°F-7.0°C 15.4°F-9.2°C 84% 10.4 mph NW16.7 kmh NW 17.3 mph27.8 kmh 29.96 in1014.6 mb - 0.00 in0.0 mm 0.00 in0.0 mm
03:50 AM 19.6°F-6.9°C 15.5°F-9.2°C 84% 9.2 mph NW14.8 kmh NW 13.8 mph22.2 kmh 29.96 in1014.6 mb - 0.00 in0.0 mm 0.00 in0.0 mm
04:00 AM 19.9°F-6.7°C 15.8°F-9.0°C 84% 9.2 mph NW14.8 kmh NW 10.4 mph16.7 kmh 29.96 in1014.6 mb - 0.00 in0.0 mm 0.00 in0.0 mm
04:10 AM 20.1°F-6.6°C 16.0°F-8.9°C 84% 11.5 mph NW18.5 kmh NW 18.4 mph29.6 kmh 29.96 in1014.6 mb - 0.00 in0.0 mm 0.00 in0.0 mm
04:20 AM 20.2°F-6.6°C 16.1°F-8.8°C 84% 10.4 mph NW16.7 kmh NW 13.8 mph22.2 kmh 29.97 in1014.9 mb - 0.00 in0.0 mm 0.00 in0.0 mm
04:30 AM 20.3°F-6.5°C 16.0°F-8.9°C 83% 10.4 mph NNW16.7 kmh NNW 15.0 mph24.1 kmh 29.96 in1014.6 mb - 0.00 in0.0 mm 0.00 in0.0 mm
04:40 AM 20.3°F-6.5°C 16.0°F-8.9°C 83% 9.2 mph NW14.8 kmh NW 16.1 mph25.9 kmh 29.98 in1015.2 mb - 0.00 in0.0 mm 0.00 in0.0 mm
04:50 AM 20.4°F-6.4°C 16.0°F-8.9°C 83% 9.2 mph NW14.8 kmh NW 13.8 mph22.2 kmh 29.99 in1015.6 mb - 0.00 in0.0 mm 0.00 in0.0 mm
05:00 AM 20.3°F-6.5°C 16.0°F-8.9°C 83% 9.2 mph NW14.8 kmh NW 15.0 mph24.1 kmh 30.00 in1015.9 mb - 0.00 in0.0 mm 0.00 in0.0 mm
05:10 AM 20.4°F-6.4°C 16.1°F-8.8°C 83% 6.9 mph NW11.1 kmh NW 8.1 mph13.0 kmh 30.01 in1016.3 mb - 0.00 in0.0 mm 0.00 in0.0 mm
05:20 AM 20.4°F-6.4°C 16.1°F-8.8°C 83% 9.2 mph NW14.8 kmh NW 13.8 mph22.2 kmh 30.02 in1016.6 mb - 0.00 in0.0 mm 0.00 in0.0 mm
05:30 AM 20.4°F-6.4°C 16.1°F-8.8°C 83% 9.2 mph NW14.8 kmh NW 15.0 mph24.1 kmh 30.02 in1016.6 mb - 0.00 in0.0 mm 0.00 in0.0 mm
05:40 AM 20.5°F-6.4°C 16.2°F-8.8°C 83% 8.1 mph NW13.0 kmh NW 13.8 mph22.2 kmh 30.02 in1016.6 mb - 0.00 in0.0 mm 0.00 in0.0 mm
05:50 AM 20.5°F-6.4°C 16.2°F-8.8°C 83% 5.8 mph NW9.3 kmh NW 11.5 mph18.5 kmh 30.02 in1016.6 mb - 0.00 in0.0 mm 0.00 in0.0 mm
06:00 AM 20.6°F-6.3°C 16.3°F-8.7°C 83% 9.2 mph NW14.8 kmh NW 15.0 mph24.1 kmh 30.02 in1016.6 mb - 0.00 in0.0 mm 0.00 in0.0 mm
06:10 AM 20.6°F-6.3°C 16.3°F-8.7°C 83% 10.4 mph NNW16.7 kmh NNW 18.4 mph29.6 kmh 30.02 in1016.6 mb - 0.00 in0.0 mm 0.00 in0.0 mm
06:20 AM 20.7°F-6.3°C 16.4°F-8.7°C 83% 9.2 mph NW14.8 kmh NW 12.7 mph20.4 kmh 30.03 in1016.9 mb - 0.00 in0.0 mm 0.00 in0.0 mm
06:30 AM 20.6°F-6.3°C 16.3°F-8.7°C 83% 12.7 mph NW20.4 kmh NW 20.7 mph33.3 kmh 30.03 in1016.9 mb - 0.00 in0.0 mm 0.00 in0.0 mm
06:40 AM 20.5°F-6.4°C 16.1°F-8.8°C 83% 11.5 mph NW18.5 kmh NW 17.3 mph27.8 kmh 30.04 in1017.3 mb - 0.00 in0.0 mm 0.00 in0.0 mm
06:50 AM 20.4°F-6.4°C 16.1°F-8.8°C 83% 12.7 mph NW20.4 kmh NW 19.6 mph31.5 kmh 30.04 in1017.3 mb - 0.00 in0.0 mm 0.00 in0.0 mm
07:00 AM 20.2°F-6.6°C 15.9°F-8.9°C 83% 12.7 mph NNW20.4 kmh NNW 18.4 mph29.6 kmh 30.05 in1017.6 mb - 0.00 in0.0 mm 0.00 in0.0 mm
07:10 AM 20.0°F-6.7°C 15.4°F-9.2°C 82% 10.4 mph NNW16.7 kmh NNW 20.7 mph33.3 kmh 30.06 in1017.9 mb - 0.00 in0.0 mm 0.00 in0.0 mm
07:20 AM 19.8°F-6.8°C 15.2°F-9.3°C 82% 11.5 mph NW18.5 kmh NW 15.0 mph24.1 kmh 30.06 in1017.9 mb - 0.00 in0.0 mm 0.00 in0.0 mm
07:30 AM 19.7°F-6.8°C 15.1°F-9.4°C 82% 10.4 mph NW16.7 kmh NW 13.8 mph22.2 kmh 30.07 in1018.3 mb - 0.00 in0.0 mm 0.00 in0.0 mm
07:40 AM 19.5°F-6.9°C 14.9°F-9.5°C 82% 9.2 mph NW14.8 kmh NW 12.7 mph20.4 kmh 30.07 in1018.3 mb - 0.00 in0.0 mm 0.00 in0.0 mm
07:50 AM 19.4°F-7.0°C 14.5°F-9.7°C 81% 9.2 mph NW14.8 kmh NW 11.5 mph18.5 kmh 30.07 in1018.3 mb - 0.00 in0.0 mm 0.00 in0.0 mm
08:00 AM 19.1°F-7.2°C 14.2°F-9.9°C 81% 8.1 mph NNW13.0 kmh NNW 12.7 mph20.4 kmh 30.08 in1018.6 mb - 0.00 in0.0 mm 0.00 in0.0 mm
08:10 AM 19.0°F-7.2°C 14.1°F-9.9°C 81% 11.5 mph NW18.5 kmh NW 19.6 mph31.5 kmh 30.08 in1018.6 mb - 0.00 in0.0 mm 0.00 in0.0 mm
08:20 AM 18.8°F-7.3°C 14.0°F-10.0°C 81% 9.2 mph NNW14.8 kmh NNW 15.0 mph24.1 kmh 30.08 in1018.6 mb - 0.00 in0.0 mm 0.00 in0.0 mm
08:30 AM 18.8°F-7.3°C 13.9°F-10.1°C 81% 10.4 mph NW16.7 kmh NW 16.1 mph25.9 kmh 30.08 in1018.6 mb - 0.00 in0.0 mm 0.00 in0.0 mm
08:40 AM 19.0°F-7.2°C 14.1°F-9.9°C 81% 8.1 mph N13.0 kmh N 10.4 mph16.7 kmh 30.08 in1018.6 mb - 0.00 in0.0 mm 0.00 in0.0 mm
08:50 AM 19.0°F-7.2°C 13.9°F-10.1°C 80% 9.2 mph NW14.8 kmh NW 17.3 mph27.8 kmh 30.08 in1018.6 mb - 0.00 in0.0 mm 0.00 in0.0 mm
09:00 AM 19.3°F-7.1°C 14.5°F-9.7°C 81% 8.1 mph NNW13.0 kmh NNW 11.5 mph18.5 kmh 30.09 in1019.0 mb - 0.00 in0.0 mm 0.00 in0.0 mm
09:10 AM 19.6°F-6.9°C 14.4°F-9.8°C 80% 8.1 mph NNW13.0 kmh NNW 12.7 mph20.4 kmh 30.09 in1019.0 mb - 0.00 in0.0 mm 0.00 in0.0 mm
09:20 AM 19.8°F-6.8°C 14.6°F-9.7°C 80% 9.2 mph NNW14.8 kmh NNW 19.6 mph31.5 kmh 30.09 in1019.0 mb - 0.00 in0.0 mm 0.00 in0.0 mm
09:30 AM 20.0°F-6.7°C 14.8°F-9.6°C 80% 10.4 mph NNW16.7 kmh NNW 13.8 mph22.2 kmh 30.10 in1019.3 mb - 0.00 in0.0 mm 0.00 in0.0 mm
09:40 AM 20.4°F-6.4°C 15.2°F-9.3°C 80% 11.5 mph NNW18.5 kmh NNW 12.7 mph20.4 kmh 30.10 in1019.3 mb - 0.00 in0.0 mm 0.00 in0.0 mm
09:50 AM 20.7°F-6.3°C 15.2°F-9.3°C 79% 9.2 mph NNW14.8 kmh NNW 17.3 mph27.8 kmh 30.11 in1019.6 mb - 0.00 in0.0 mm 0.00 in0.0 mm
10:00 AM 20.9°F-6.2°C 15.4°F-9.2°C 79% 8.1 mph N13.0 kmh N 10.4 mph16.7 kmh 30.11 in1019.6 mb - 0.00 in0.0 mm 0.00 in0.0 mm
10:10 AM 21.2°F-6.0°C 15.7°F-9.1°C 79% 9.2 mph N14.8 kmh N 15.0 mph24.1 kmh 30.13 in1020.3 mb - 0.00 in0.0 mm 0.00 in0.0 mm
10:20 AM 21.7°F-5.7°C 16.2°F-8.8°C 79% 8.1 mph N13.0 kmh N 9.2 mph14.8 kmh 30.14 in1020.7 mb - 0.00 in0.0 mm 0.00 in0.0 mm
10:30 AM 22.0°F-5.6°C 16.5°F-8.6°C 79% 5.8 mph N9.3 kmh N 17.3 mph27.8 kmh 30.14 in1020.7 mb - 0.00 in0.0 mm 0.00 in0.0 mm
10:40 AM 22.0°F-5.6°C 15.8°F-9.0°C 77% 8.1 mph N13.0 kmh N 10.4 mph16.7 kmh 30.14 in1020.7 mb - 0.00 in0.0 mm 0.00 in0.0 mm
10:50 AM 22.2°F-5.4°C 16.1°F-8.8°C 77% 8.1 mph N13.0 kmh N 8.1 mph13.0 kmh 30.13 in1020.3 mb - 0.00 in0.0 mm 0.00 in0.0 mm
11:00 AM 22.4°F-5.3°C 16.0°F-8.9°C 76% 9.2 mph N14.8 kmh N 16.1 mph25.9 kmh 30.13 in1020.3 mb - 0.00 in0.0 mm 0.00 in0.0 mm
11:10 AM 22.1°F-5.5°C 14.5°F-9.7°C 72% 9.2 mph N14.8 kmh N 13.8 mph22.2 kmh 30.13 in1020.3 mb - 0.00 in0.0 mm 0.00 in0.0 mm
11:20 AM 22.2°F-5.4°C 14.6°F-9.7°C 72% 8.1 mph N13.0 kmh N 11.5 mph18.5 kmh 30.12 in1020.0 mb - 0.00 in0.0 mm 0.00 in0.0 mm
11:30 AM 22.7°F-5.2°C 15.0°F-9.4°C 72% 10.4 mph NE16.7 kmh NE 16.1 mph25.9 kmh 30.13 in1020.3 mb - 0.00 in0.0 mm 0.00 in0.0 mm
11:40 AM 23.7°F-4.6°C 16.0°F-8.9°C 72% 9.2 mph NE14.8 kmh NE 19.6 mph31.5 kmh 30.13 in1020.3 mb - 0.00 in0.0 mm 0.00 in0.0 mm
11:50 AM 23.3°F-4.8°C 14.6°F-9.7°C 69% 11.5 mph NE18.5 kmh NE 18.4 mph29.6 kmh 30.13 in1020.3 mb - 0.00 in0.0 mm 0.00 in0.0 mm
12:00 PM 22.9°F-5.1°C 14.9°F-9.5°C 71% 10.4 mph NE16.7 kmh NE 18.4 mph29.6 kmh 30.13 in1020.3 mb - 0.00 in0.0 mm 0.00 in0.0 mm
12:10 PM 22.9°F-5.1°C 14.9°F-9.5°C 71% 8.1 mph NNE13.0 kmh NNE 11.5 mph18.5 kmh 30.13 in1020.3 mb - 0.00 in0.0 mm 0.00 in0.0 mm
12:20 PM 23.0°F-5.0°C 15.0°F-9.4°C 71% 8.1 mph NE13.0 kmh NE 16.1 mph25.9 kmh 30.13 in1020.3 mb - 0.00 in0.0 mm 0.00 in0.0 mm
12:30 PM 22.4°F-5.3°C 14.1°F-9.9°C 70% 9.2 mph N14.8 kmh N 13.8 mph22.2 kmh 30.13 in1020.3 mb - 0.00 in0.0 mm 0.00 in0.0 mm
12:40 PM 22.6°F-5.2°C 14.6°F-9.7°C 71% 8.1 mph N13.0 kmh N 13.8 mph22.2 kmh 30.13 in1020.3 mb - 0.00 in0.0 mm 0.00 in0.0 mm
12:50 PM 22.5°F-5.3°C 14.2°F-9.9°C 70% 11.5 mph NNE18.5 kmh NNE 16.1 mph25.9 kmh 30.13 in1020.3 mb - 0.00 in0.0 mm 0.00 in0.0 mm
01:00 PM 22.6°F-5.2°C 14.3°F-9.8°C 70% 6.9 mph N11.1 kmh N 10.4 mph16.7 kmh 30.13 in1020.3 mb - 0.00 in0.0 mm 0.00 in0.0 mm
01:10 PM 22.7°F-5.2°C 14.1°F-9.9°C 69% 9.2 mph N14.8 kmh N 17.3 mph27.8 kmh 30.13 in1020.3 mb - 0.00 in0.0 mm 0.00 in0.0 mm
01:20 PM 22.7°F-5.2°C 14.1°F-9.9°C 69% 9.2 mph N14.8 kmh N 15.0 mph24.1 kmh 30.13 in1020.3 mb - 0.00 in0.0 mm 0.00 in0.0 mm
01:30 PM 22.9°F-5.1°C 13.9°F-10.1°C 68% 9.2 mph NNE14.8 kmh NNE 19.6 mph31.5 kmh 30.12 in1020.0 mb - 0.00 in0.0 mm 0.00 in0.0 mm
01:40 PM 23.3°F-4.8°C 14.6°F-9.7°C 69% 8.1 mph NNE13.0 kmh NNE 10.4 mph16.7 kmh 30.13 in1020.3 mb - 0.00 in0.0 mm 0.00 in0.0 mm
01:50 PM 23.1°F-4.9°C 14.4°F-9.8°C 69% 5.8 mph N9.3 kmh N 10.4 mph16.7 kmh 30.14 in1020.7 mb - 0.00 in0.0 mm 0.00 in0.0 mm
02:00 PM 23.0°F-5.0°C 14.6°F-9.7°C 70% 6.9 mph N11.1 kmh N 13.8 mph22.2 kmh 30.14 in1020.7 mb - 0.00 in0.0 mm 0.00 in0.0 mm
02:10 PM 22.9°F-5.1°C 13.9°F-10.1°C 68% 10.4 mph N16.7 kmh N 15.0 mph24.1 kmh 30.14 in1020.7 mb - 0.00 in0.0 mm 0.00 in0.0 mm
02:20 PM 22.8°F-5.1°C 14.1°F-9.9°C 69% 8.1 mph NNW13.0 kmh NNW 16.1 mph25.9 kmh 30.15 in1021.0 mb - 0.00 in0.0 mm 0.00 in0.0 mm
02:30 PM 22.7°F-5.2°C 14.1°F-9.9°C 69% 8.1 mph N13.0 kmh N 12.7 mph20.4 kmh 30.16 in1021.3 mb - 0.00 in0.0 mm 0.00 in0.0 mm
02:40 PM 22.7°F-5.2°C 13.4°F-10.3°C 67% 9.2 mph N14.8 kmh N 11.5 mph18.5 kmh 30.17 in1021.7 mb - 0.00 in0.0 mm 0.00 in0.0 mm
02:50 PM 22.3°F-5.4°C 13.3°F-10.4°C 68% 8.1 mph NNW13.0 kmh NNW 11.5 mph18.5 kmh 30.18 in1022.0 mb - 0.00 in0.0 mm 0.00 in0.0 mm
03:00 PM 22.2°F-5.4°C 13.2°F-10.4°C 68% 10.4 mph NNW16.7 kmh NNW 18.4 mph29.6 kmh 30.18 in1022.0 mb - 0.00 in0.0 mm 0.00 in0.0 mm
03:10 PM 22.2°F-5.4°C 12.9°F-10.6°C 67% 9.2 mph N14.8 kmh N 15.0 mph24.1 kmh 30.19 in1022.4 mb - 0.00 in0.0 mm 0.00 in0.0 mm
03:20 PM 22.2°F-5.4°C 12.6°F-10.8°C 66% 8.1 mph N13.0 kmh N 19.6 mph31.5 kmh 30.20 in1022.7 mb - 0.00 in0.0 mm 0.00 in0.0 mm
03:30 PM 22.4°F-5.3°C 12.4°F-10.9°C 65% 10.4 mph N16.7 kmh N 17.3 mph27.8 kmh 30.22 in1023.4 mb - 0.00 in0.0 mm 0.00 in0.0 mm
03:40 PM 22.7°F-5.2°C 13.0°F-10.6°C 66% 5.8 mph NE9.3 kmh NE 12.7 mph20.4 kmh 30.23 in1023.7 mb - 0.00 in0.0 mm 0.00 in0.0 mm
03:50 PM 22.4°F-5.3°C 12.4°F-10.9°C 65% 6.9 mph NNE11.1 kmh NNE 10.4 mph16.7 kmh 30.23 in1023.7 mb - 0.00 in0.0 mm 0.00 in0.0 mm
04:00 PM 22.0°F-5.6°C 12.0°F-11.1°C 65% 10.4 mph NE16.7 kmh NE 13.8 mph22.2 kmh 30.23 in1023.7 mb - 0.00 in0.0 mm 0.00 in0.0 mm
04:10 PM 21.8°F-5.7°C 11.8°F-11.2°C 65% 6.9 mph NNE11.1 kmh NNE 11.5 mph18.5 kmh 30.24 in1024.0 mb - 0.00 in0.0 mm 0.00 in0.0 mm
04:20 PM 21.8°F-5.7°C 11.8°F-11.2°C 65% 6.9 mph N11.1 kmh N 15.0 mph24.1 kmh 30.24 in1024.0 mb - 0.00 in0.0 mm 0.00 in0.0 mm
04:30 PM 21.5°F-5.8°C 10.8°F-11.8°C 63% 9.2 mph N14.8 kmh N 16.1 mph25.9 kmh 30.26 in1024.7 mb - 0.00 in0.0 mm 0.00 in0.0 mm
04:40 PM 21.4°F-5.9°C 11.1°F-11.6°C 64% 6.9 mph N11.1 kmh N 12.7 mph20.4 kmh 30.27 in1025.1 mb - 0.00 in0.0 mm 0.00 in0.0 mm
04:50 PM 21.3°F-5.9°C 10.3°F-12.1°C 62% 6.9 mph NNE11.1 kmh NNE 11.5 mph18.5 kmh 30.27 in1025.1 mb - 0.00 in0.0 mm 0.00 in0.0 mm
05:00 PM 21.2°F-6.0°C 10.9°F-11.7°C 64% 4.6 mph N7.4 kmh N 11.5 mph18.5 kmh 30.27 in1025.1 mb - 0.00 in0.0 mm 0.00 in0.0 mm
05:10 PM 21.0°F-6.1°C 10.0°F-12.2°C 62% 8.1 mph N13.0 kmh N 16.1 mph25.9 kmh 30.27 in1025.1 mb - 0.00 in0.0 mm 0.00 in0.0 mm
05:20 PM 20.9°F-6.2°C 10.6°F-11.9°C 64% 8.1 mph NE13.0 kmh NE 16.1 mph25.9 kmh 30.27 in1025.1 mb - 0.00 in0.0 mm 0.00 in0.0 mm
05:30 PM 20.7°F-6.3°C 9.7°F-12.4°C 62% 9.2 mph NNE14.8 kmh NNE 9.2 mph14.8 kmh 30.27 in1025.1 mb - 0.00 in0.0 mm 0.00 in0.0 mm
05:40 PM 20.4°F-6.4°C 8.7°F-12.9°C 60% 9.2 mph N14.8 kmh N 12.7 mph20.4 kmh 30.28 in1025.4 mb - 0.00 in0.0 mm 0.00 in0.0 mm
05:50 PM 20.2°F-6.6°C 9.2°F-12.7°C 62% 5.8 mph N9.3 kmh N 10.4 mph16.7 kmh 30.29 in1025.7 mb - 0.00 in0.0 mm 0.00 in0.0 mm
06:00 PM 20.0°F-6.7°C 9.1°F-12.7°C 62% 6.9 mph NNW11.1 kmh NNW 9.2 mph14.8 kmh 30.30 in1026.1 mb - 0.00 in0.0 mm 0.00 in0.0 mm
06:10 PM 19.9°F-6.7°C 9.3°F-12.6°C 63% 12.7 mph N20.4 kmh N 16.1 mph25.9 kmh 30.30 in1026.1 mb - 0.00 in0.0 mm 0.00 in0.0 mm
06:20 PM 20.0°F-6.7°C 9.4°F-12.6°C 63% 9.2 mph N14.8 kmh N 13.8 mph22.2 kmh 30.31 in1026.4 mb - 0.00 in0.0 mm 0.00 in0.0 mm
06:30 PM 20.0°F-6.7°C 9.1°F-12.7°C 62% 9.2 mph NNW14.8 kmh NNW 11.5 mph18.5 kmh 30.31 in1026.4 mb - 0.00 in0.0 mm 0.00 in0.0 mm
06:40 PM 19.9°F-6.7°C 9.7°F-12.4°C 64% 8.1 mph NNW13.0 kmh NNW 11.5 mph18.5 kmh 30.32 in1026.8 mb - 0.00 in0.0 mm 0.00 in0.0 mm
06:50 PM 20.0°F-6.7°C 9.8°F-12.3°C 64% 11.5 mph NNW18.5 kmh NNW 16.1 mph25.9 kmh 30.32 in1026.8 mb - 0.00 in0.0 mm 0.00 in0.0 mm
07:00 PM 19.9°F-6.7°C 9.7°F-12.4°C 64% 9.2 mph N14.8 kmh N 13.8 mph22.2 kmh 30.33 in1027.1 mb - 0.00 in0.0 mm 0.00 in0.0 mm
07:10 PM 19.9°F-6.7°C 9.7°F-12.4°C 64% 6.9 mph NNW11.1 kmh NNW 9.2 mph14.8 kmh 30.34 in1027.4 mb - 0.00 in0.0 mm 0.00 in0.0 mm
07:20 PM 19.8°F-6.8°C 8.9°F-12.8°C 62% 11.5 mph NNW18.5 kmh NNW 13.8 mph22.2 kmh 30.34 in1027.4 mb - 0.00 in0.0 mm 0.00 in0.0 mm
07:30 PM 19.7°F-6.8°C 8.8°F-12.9°C 62% 6.9 mph NNW11.1 kmh NNW 12.7 mph20.4 kmh 30.34 in1027.4 mb - 0.00 in0.0 mm 0.00 in0.0 mm
07:40 PM 19.5°F-6.9°C 8.6°F-13.0°C 62% 10.4 mph N16.7 kmh N 13.8 mph22.2 kmh 30.34 in1027.4 mb - 0.00 in0.0 mm 0.00 in0.0 mm
07:50 PM 19.4°F-7.0°C 8.1°F-13.3°C 61% 10.4 mph NNW16.7 kmh NNW 16.1 mph25.9 kmh 30.35 in1027.8 mb - 0.00 in0.0 mm 0.00 in0.0 mm
08:00 PM 19.4°F-7.0°C 8.1°F-13.3°C 61% 10.4 mph NNW16.7 kmh NNW 17.3 mph27.8 kmh 30.35 in1027.8 mb - 0.00 in0.0 mm 0.00 in0.0 mm
08:10 PM 19.3°F-7.1°C 8.4°F-13.1°C 62% 8.1 mph NNW13.0 kmh NNW 16.1 mph25.9 kmh 30.36 in1028.1 mb - 0.00 in0.0 mm 0.00 in0.0 mm
08:20 PM 19.3°F-7.1°C 8.4°F-13.1°C 62% 12.7 mph NNW20.4 kmh NNW 23.0 mph37.0 kmh 30.37 in1028.4 mb - 0.00 in0.0 mm 0.00 in0.0 mm
08:30 PM 19.2°F-7.1°C 8.7°F-12.9°C 63% 9.2 mph NNW14.8 kmh NNW 16.1 mph25.9 kmh 30.37 in1028.4 mb - 0.00 in0.0 mm 0.00 in0.0 mm
08:40 PM 19.2°F-7.1°C 8.6°F-13.0°C 63% 10.4 mph NNW16.7 kmh NNW 13.8 mph22.2 kmh 30.37 in1028.4 mb - 0.00 in0.0 mm 0.00 in0.0 mm
08:50 PM 19.0°F-7.2°C 8.1°F-13.3°C 62% 8.1 mph NNW13.0 kmh NNW 16.1 mph25.9 kmh 30.37 in1028.4 mb - 0.00 in0.0 mm 0.00 in0.0 mm
09:00 PM 18.8°F-7.3°C 7.6°F-13.6°C 61% 11.5 mph NNW18.5 kmh NNW 21.9 mph35.2 kmh 30.38 in1028.8 mb - 0.00 in0.0 mm 0.00 in0.0 mm
09:10 PM 18.8°F-7.3°C 7.6°F-13.6°C 61% 12.7 mph NNW20.4 kmh NNW 17.3 mph27.8 kmh 30.38 in1028.8 mb - 0.00 in0.0 mm 0.00 in0.0 mm
09:20 PM 18.6°F-7.4°C 7.7°F-13.5°C 62% 9.2 mph N14.8 kmh N 13.8 mph22.2 kmh 30.39 in1029.1 mb - 0.00 in0.0 mm 0.00 in0.0 mm
09:30 PM 18.4°F-7.6°C 7.2°F-13.8°C 61% 9.2 mph NNW14.8 kmh NNW 13.8 mph22.2 kmh 30.39 in1029.1 mb - 0.00 in0.0 mm 0.00 in0.0 mm
09:40 PM 18.1°F-7.7°C 7.6°F-13.6°C 63% 10.4 mph NNW16.7 kmh NNW 15.0 mph24.1 kmh 30.39 in1029.1 mb - 0.00 in0.0 mm 0.00 in0.0 mm
09:50 PM 17.7°F-7.9°C 7.6°F-13.6°C 64% 11.5 mph NNW18.5 kmh NNW 17.3 mph27.8 kmh 30.39 in1029.1 mb - 0.00 in0.0 mm 0.00 in0.0 mm
10:00 PM 17.4°F-8.1°C 7.3°F-13.7°C 64% 9.2 mph NNW14.8 kmh NNW 15.0 mph24.1 kmh 30.39 in1029.1 mb - 0.00 in0.0 mm 0.00 in0.0 mm
10:10 PM 17.1°F-8.3°C 7.0°F-13.9°C 64% 11.5 mph NNW18.5 kmh NNW 19.6 mph31.5 kmh 30.40 in1029.5 mb - 0.00 in0.0 mm 0.00 in0.0 mm
10:20 PM 17.0°F-8.3°C 7.3°F-13.7°C 65% 9.2 mph NNW14.8 kmh NNW 15.0 mph24.1 kmh 30.40 in1029.5 mb - 0.00 in0.0 mm 0.00 in0.0 mm
10:30 PM 17.0°F-8.3°C 7.3°F-13.7°C 65% 6.9 mph NNW11.1 kmh NNW 11.5 mph18.5 kmh 30.40 in1029.5 mb - 0.00 in0.0 mm 0.00 in0.0 mm
10:40 PM 16.9°F-8.4°C 6.8°F-14.0°C 64% 10.4 mph NNW16.7 kmh NNW 15.0 mph24.1 kmh 30.41 in1029.8 mb - 0.00 in0.0 mm 0.00 in0.0 mm
10:50 PM 16.7°F-8.5°C 6.6°F-14.1°C 64% 6.9 mph NNW11.1 kmh NNW 9.2 mph14.8 kmh 30.41 in1029.8 mb - 0.00 in0.0 mm 0.00 in0.0 mm
11:00 PM 16.6°F-8.6°C 6.2°F-14.3°C 63% 11.5 mph NNW18.5 kmh NNW 18.4 mph29.6 kmh 30.42 in1030.1 mb - 0.00 in0.0 mm 0.00 in0.0 mm
11:10 PM 16.5°F-8.6°C 6.4°F-14.2°C 64% 6.9 mph NNW11.1 kmh NNW 12.7 mph20.4 kmh 30.42 in1030.1 mb - 0.00 in0.0 mm 0.00 in0.0 mm
11:20 PM 16.3°F-8.7°C 6.2°F-14.3°C 64% 9.2 mph N14.8 kmh N 18.4 mph29.6 kmh 30.42 in1030.1 mb - 0.00 in0.0 mm 0.00 in0.0 mm
11:30 PM 16.1°F-8.8°C 5.7°F-14.6°C 63% 9.2 mph NNW14.8 kmh NNW 13.8 mph22.2 kmh 30.43 in1030.5 mb - 0.00 in0.0 mm 0.00 in0.0 mm
11:40 PM 16.0°F-8.9°C 4.9°F-15.1°C 61% 9.2 mph NNW14.8 kmh NNW 9.2 mph14.8 kmh 30.43 in1030.5 mb - 0.00 in0.0 mm 0.00 in0.0 mm
11:50 PM 15.9°F-8.9°C 4.8°F-15.1°C 61% 9.2 mph NNW14.8 kmh NNW 18.4 mph29.6 kmh 30.44 in1030.8 mb - 0.00 in0.0 mm 0.00 in0.0 mm